Time;durP1;ratioP1;P1;durP2;ratioP2;P2;SDS_P1;SDS_P2;PMS_P1;PMS_P2;Temp;Humidity;BMP_temperature;BMP_pressure;BME280_temperature;BME280_humidity;BME280_pressure;Samples;Min_cycle;Max_cycle;Signal;HPM_P1;HPM_P2
2023/09/23 00:00:12;;;;;;;0.60;0.40;;;;;;;21.62;100.00;95543.19;5111342;28;20436;-59
2023/09/23 00:02:42;;;;;;;0.60;0.53;;;;;;;21.33;100.00;95547.59;5112128;28;20432;-59
2023/09/23 00:05:15;;;;;;;0.50;0.30;;;;;;;21.23;100.00;95537.22;5086090;28;21024;-60
2023/09/23 00:07:44;;;;;;;1.00;0.60;;;;;;;21.07;100.00;95544.34;5111916;28;20471;-60
2023/09/23 00:10:13;;;;;;;0.67;0.33;;;;;;;21.19;100.00;95538.22;5111949;28;20435;-60
2023/09/23 00:12:43;;;;;;;0.57;0.33;;;;;;;21.19;100.00;95533.63;5111364;28;20473;-60
2023/09/23 00:15:12;;;;;;;0.50;0.50;;;;;;;21.19;100.00;95541.69;5112127;28;20819;-60
2023/09/23 00:17:45;;;;;;;1.13;1.13;;;;;;;20.97;100.00;95533.13;5111807;28;20490;-60
2023/09/23 00:20:17;;;;;;;0.70;0.70;;;;;;;21.15;100.00;95548.84;5111775;28;20519;-60
2023/09/23 00:22:46;;;;;;;0.57;0.30;;;;;;;21.28;100.00;95547.78;5111544;28;20454;-60
2023/09/23 00:25:18;;;;;;;0.50;0.40;;;;;;;21.19;100.00;95541.69;5112026;28;20923;-60
2023/09/23 00:27:48;;;;;;;0.50;0.40;;;;;;;21.23;100.00;95548.00;5111880;28;20431;-60
2023/09/23 00:30:17;;;;;;;0.60;0.30;;;;;;;20.84;100.00;95508.84;5095188;28;20523;-60
2023/09/23 00:32:47;;;;;;;0.50;0.30;;;;;;;20.92;100.00;95555.69;5078887;28;20455;-60
2023/09/23 00:35:18;;;;;;;0.40;0.20;;;;;;;20.59;100.00;95557.50;5105543;28;20439;-59
2023/09/23 00:37:49;;;;;;;1.67;0.73;;;;;;;20.65;100.00;95551.59;5112013;28;20510;-59
2023/09/23 00:40:27;;;;;;;0.97;0.80;;;;;;;20.58;100.00;95540.53;5111294;28;20446;-60
2023/09/23 00:42:58;;;;;;;0.50;0.37;;;;;;;20.74;100.00;95519.22;5111685;28;20484;-60
2023/09/23 00:45:29;;;;;;;1.73;0.70;;;;;;;20.75;100.00;95545.00;5111949;28;20443;-59
2023/09/23 00:47:58;;;;;;;0.50;0.40;;;;;;;20.95;100.00;95536.16;5111781;28;20488;-60
2023/09/23 00:50:29;;;;;;;0.50;0.30;;;;;;;20.98;100.00;95540.09;5111722;28;20466;-60
2023/09/23 00:52:59;;;;;;;0.40;0.30;;;;;;;20.46;100.00;95507.34;5115287;28;20520;-60
2023/09/23 00:55:30;;;;;;;0.90;0.50;;;;;;;20.65;100.00;95548.09;5115507;28;20441;-60
2023/09/23 00:58:00;;;;;;;0.40;0.30;;;;;;;20.84;100.00;95545.75;5115252;28;20440;-59
2023/09/23 01:00:31;;;;;;;0.60;0.50;;;;;;;20.76;100.00;95543.91;5115052;28;20802;-59
2023/09/23 01:03:00;;;;;;;0.60;0.40;;;;;;;20.85;100.00;95544.63;5115072;28;20431;-59
2023/09/23 01:05:29;;;;;;;1.30;0.40;;;;;;;20.92;100.00;95551.06;5115587;28;20443;-59
2023/09/23 01:08:11;;;;;;;0.63;0.60;;;;;;;20.43;100.00;95526.84;5114955;28;21188;-59
2023/09/23 01:10:40;;;;;;;0.70;0.40;;;;;;;20.55;100.00;95559.25;5114706;28;20474;-59
2023/09/23 01:13:11;;;;;;;0.50;0.40;;;;;;;20.64;100.00;95549.22;5115044;28;20493;-59
2023/09/23 01:15:40;;;;;;;0.60;0.60;;;;;;;20.80;100.00;95552.91;5115040;28;20998;-59
2023/09/23 01:18:13;;;;;;;0.50;0.40;;;;;;;20.57;100.00;95557.00;5115652;28;20872;-59
2023/09/23 01:20:43;;;;;;;0.50;0.30;;;;;;;20.56;100.00;95556.25;5114844;28;20442;-59
2023/09/23 01:23:13;;;;;;;0.50;0.30;;;;;;;20.59;100.00;95554.81;5114200;28;20466;-59
2023/09/23 01:25:41;;;;;;;0.50;0.37;;;;;;;20.66;100.00;95552.38;5115054;28;20436;-59
2023/09/23 01:28:11;;;;;;;1.10;0.60;;;;;;;20.63;100.00;95550.31;5114789;28;20484;-59
2023/09/23 01:30:41;;;;;;;0.50;0.30;;;;;;;20.65;100.00;95550.78;5114672;28;20930;-59
2023/09/23 01:33:10;;;;;;;0.70;0.53;;;;;;;20.59;100.00;95525.19;5114649;28;20478;-60
2023/09/23 01:35:38;;;;;;;0.40;0.30;;;;;;;20.72;100.00;95549.16;5114302;28;20481;-59
2023/09/23 01:38:07;;;;;;;0.67;0.40;;;;;;;20.56;100.00;95542.78;5114511;28;20866;-59
2023/09/23 01:40:40;;;;;;;1.07;1.07;;;;;;;20.51;100.00;95547.56;5114265;28;20939;-60
2023/09/23 01:43:10;;;;;;;0.40;0.30;;;;;;;20.28;100.00;95549.75;5117633;28;20521;-59
2023/09/23 01:45:39;;;;;;;0.40;0.30;;;;;;;20.22;100.00;95548.31;5088775;28;20496;-59
2023/09/23 01:48:09;;;;;;;0.50;0.30;;;;;;;20.06;100.00;95541.91;5113833;28;20439;-59
2023/09/23 01:50:37;;;;;;;0.60;0.50;;;;;;;20.27;100.00;95548.94;5113992;28;20467;-59
2023/09/23 01:53:06;;;;;;;0.70;0.70;;;;;;;20.27;100.00;95540.88;5113495;28;20494;-59
2023/09/23 01:55:37;;;;;;;2.07;0.50;;;;;;;20.25;100.00;95535.03;5111334;28;20443;-59
2023/09/23 01:58:06;;;;;;;0.47;0.30;;;;;;;20.27;100.00;95532.78;5112970;28;21032;-59
2023/09/23 02:00:34;;;;;;;0.60;0.50;;;;;;;20.36;100.00;95529.28;5114183;28;20450;-59
2023/09/23 02:03:03;;;;;;;0.50;0.47;;;;;;;19.79;100.00;95467.78;5112941;28;20446;-59
2023/09/23 02:05:32;;;;;;;0.60;0.40;;;;;;;19.90;100.00;95511.25;5114296;27;20653;-59
2023/09/23 02:08:00;;;;;;;2.00;0.70;;;;;;;20.02;100.00;95530.19;5114483;28;20492;-59
2023/09/23 02:10:29;;;;;;;2.70;0.60;;;;;;;19.75;100.00;95525.25;5113899;28;20504;-59
2023/09/23 02:12:59;;;;;;;1.00;1.00;;;;;;;19.89;100.00;95531.19;5113606;28;20483;-59
2023/09/23 02:15:27;;;;;;;0.77;0.77;;;;;;;19.97;100.00;95506.97;5113560;28;20451;-59
2023/09/23 02:17:56;;;;;;;0.50;0.40;;;;;;;19.96;100.00;95515.38;5113307;28;20966;-59
2023/09/23 02:20:25;;;;;;;0.67;0.57;;;;;;;20.02;100.00;95536.38;5114040;28;20947;-59
2023/09/23 02:22:55;;;;;;;0.50;0.47;;;;;;;20.21;100.00;95531.38;5112633;28;20439;-59
2023/09/23 02:25:25;;;;;;;0.50;0.30;;;;;;;20.14;100.00;95533.78;5114357;28;20436;-59
2023/09/23 02:27:55;;;;;;;2.20;0.40;;;;;;;20.30;100.00;95538.63;5113551;28;20431;-59
2023/09/23 02:30:25;;;;;;;0.50;0.50;;;;;;;20.05;100.00;95511.50;5113045;28;20450;-59
2023/09/23 02:32:54;;;;;;;8.40;0.63;;;;;;;20.09;100.00;95520.50;5113540;28;20475;-59
2023/09/23 02:35:25;;;;;;;0.60;0.40;;;;;;;20.22;100.00;95530.25;5113476;28;20436;-59
2023/09/23 02:37:54;;;;;;;1.30;0.93;;;;;;;20.17;100.00;95532.34;5113900;28;20435;-59
2023/09/23 02:40:27;;;;;;;0.50;0.40;;;;;;;20.23;100.00;95541.84;5113555;28;20435;-58
2023/09/23 02:42:59;;;;;;;0.60;0.40;;;;;;;20.00;100.00;95510.91;5113575;28;20519;-58
2023/09/23 02:45:31;;;;;;;0.40;0.30;;;;;;;20.22;100.00;95545.63;5113045;28;20468;-58
2023/09/23 02:48:00;;;;;;;0.70;0.40;;;;;;;19.86;100.00;95546.06;5113560;28;20443;-59
2023/09/23 02:50:28;;;;;;;0.50;0.30;;;;;;;19.80;100.00;95541.22;5113308;28;20965;-58
2023/09/23 02:52:59;;;;;;;0.50;0.40;;;;;;;19.51;100.00;95552.66;5112874;28;20483;-58
2023/09/23 02:55:27;;;;;;;0.40;0.30;;;;;;;19.59;100.00;95541.91;5086397;28;20450;-58
2023/09/23 02:57:56;;;;;;;0.60;0.40;;;;;;;19.49;100.00;95546.81;5113202;28;20439;-57
2023/09/23 03:00:29;;;;;;;0.40;0.30;;;;;;;19.70;100.00;95546.94;5113136;28;20463;-59
2023/09/23 03:03:03;;;;;;;0.50;0.30;;;;;;;19.29;100.00;95512.53;5112350;28;20458;-58
2023/09/23 03:05:38;;;;;;;0.50;0.40;;;;;;;19.46;100.00;95534.00;5112718;28;20435;-59
2023/09/23 03:08:13;;;;;;;0.40;0.30;;;;;;;19.33;100.00;95481.19;5113267;28;20487;-58
2023/09/23 03:10:44;;;;;;;0.60;0.57;;;;;;;19.91;100.00;95551.28;5112916;28;20431;-59
2023/09/23 03:13:13;;;;;;;0.73;0.50;;;;;;;19.90;100.00;95554.31;5085584;28;20507;-59
2023/09/23 03:15:44;;;;;;;0.50;0.37;;;;;;;19.66;100.00;95538.69;5112378;28;20492;-58
2023/09/23 03:18:15;;;;;;;0.73;0.50;;;;;;;19.34;100.00;95552.66;5112856;28;20443;-59
2023/09/23 03:20:45;;;;;;;0.90;0.77;;;;;;;19.41;100.00;95550.31;5111967;28;20589;-59
2023/09/23 03:23:13;;;;;;;0.67;0.67;;;;;;;19.40;100.00;95551.44;5112330;28;20466;-59
2023/09/23 03:25:46;;;;;;;0.90;0.57;;;;;;;19.65;100.00;95558.66;5111903;28;20531;-59
2023/09/23 03:28:16;;;;;;;0.47;0.30;;;;;;;19.06;100.00;95463.56;5112161;28;20443;-59
2023/09/23 03:30:47;;;;;;;0.70;0.50;;;;;;;19.24;100.00;95569.91;5111971;28;20463;-59
2023/09/23 03:33:19;;;;;;;0.77;0.77;;;;;;;19.12;100.00;95556.34;5112411;28;20549;-59
2023/09/23 03:35:49;;;;;;;4.40;0.57;;;;;;;19.31;100.00;95572.09;5111914;28;20440;-60
2023/09/23 03:38:18;;;;;;;0.60;0.60;;;;;;;19.42;100.00;95570.72;5112496;28;20959;-61
2023/09/23 03:40:53;;;;;;;0.60;0.30;;;;;;;19.31;100.00;95574.78;5112605;28;20844;-60
2023/09/23 03:43:22;;;;;;;0.60;0.50;;;;;;;19.25;100.00;95576.09;5112364;27;20439;-60
2023/09/23 03:45:51;;;;;;;0.83;0.40;;;;;;;19.23;100.00;95578.28;5112120;28;20958;-60
2023/09/23 03:48:21;;;;;;;0.60;0.60;;;;;;;19.02;100.00;95543.22;5111045;28;20435;-59
2023/09/23 03:50:51;;;;;;;0.50;0.40;;;;;;;19.28;100.00;95591.56;5112451;27;20446;-58
2023/09/23 03:53:21;;;;;;;0.50;0.30;;;;;;;19.26;100.00;95572.28;5113631;28;20487;-59
2023/09/23 03:55:54;;;;;;;0.50;0.50;;;;;;;19.01;100.00;95542.44;5114177;28;20432;-58
2023/09/23 03:58:24;;;;;;;7.10;0.40;;;;;;;19.41;100.00;95614.81;5112183;28;20454;-59
2023/09/23 04:00:54;;;;;;;0.57;0.40;;;;;;;19.28;100.00;95583.50;5111936;28;20481;-59
2023/09/23 04:03:25;;;;;;;3.50;0.43;;;;;;;19.23;100.00;95591.72;5111695;28;20504;-58
2023/09/23 04:05:55;;;;;;;1.03;0.57;;;;;;;18.80;100.00;95576.38;5111716;28;20527;-58
2023/09/23 04:08:23;;;;;;;0.73;0.70;;;;;;;18.80;100.00;95583.63;5112396;28;20465;-59
2023/09/23 04:10:52;;;;;;;1.20;0.97;;;;;;;18.95;100.00;95586.66;5111680;28;20440;-59
2023/09/23 04:13:21;;;;;;;0.47;0.37;;;;;;;18.96;100.00;95558.69;5111927;28;20832;-58
2023/09/23 04:15:50;;;;;;;0.57;0.33;;;;;;;18.58;100.00;95524.69;5111208;28;20443;-59
2023/09/23 04:18:19;;;;;;;0.63;0.40;;;;;;;19.00;100.00;95586.50;5112012;28;20509;-59
2023/09/23 04:20:53;;;;;;;0.50;0.40;;;;;;;19.10;100.00;95581.94;5111734;28;20969;-59
2023/09/23 04:23:22;;;;;;;0.40;0.30;;;;;;;19.11;100.00;95580.81;5111988;28;20496;-59
2023/09/23 04:25:51;;;;;;;0.57;0.40;;;;;;;18.71;100.00;95548.72;5113263;28;20443;-59
2023/09/23 04:28:19;;;;;;;0.70;0.63;;;;;;;18.80;100.00;95562.94;5116417;28;20439;-59
2023/09/23 04:30:50;;;;;;;0.50;0.30;;;;;;;19.07;100.00;95590.63;5115732;28;21111;-59
2023/09/23 04:33:18;;;;;;;0.50;0.37;;;;;;;19.15;100.00;95604.03;5116327;28;20471;-60
2023/09/23 04:35:47;;;;;;;1.60;0.60;;;;;;;19.11;100.00;95602.31;5115718;28;20435;-59
2023/09/23 04:38:18;;;;;;;0.60;0.30;;;;;;;19.22;100.00;95601.69;5115795;28;20530;-60
2023/09/23 04:40:47;;;;;;;5.70;0.40;;;;;;;19.19;100.00;95604.22;5115965;28;20527;-59
2023/09/23 04:43:16;;;;;;;0.67;0.50;;;;;;;19.11;100.00;95616.53;5115564;28;20443;-59
2023/09/23 04:45:45;;;;;;;3.93;0.40;;;;;;;19.31;100.00;95609.75;5115750;28;20794;-59
2023/09/23 04:48:14;;;;;;;0.60;0.60;;;;;;;19.29;100.00;95602.00;5115323;28;20431;-61
2023/09/23 04:50:46;;;;;;;0.60;0.60;;;;;;;19.10;100.00;95557.75;5115366;28;20431;-61
2023/09/23 04:53:15;;;;;;;2.20;0.63;;;;;;;19.60;100.00;95615.28;5114712;28;20486;-61
2023/09/23 04:55:45;;;;;;;1.13;0.80;;;;;;;19.70;100.00;95606.91;5115096;28;20806;-61
2023/09/23 04:58:14;;;;;;;0.87;0.60;;;;;;;19.70;100.00;95620.34;5114564;28;20427;-61
2023/09/23 05:00:43;;;;;;;0.60;0.50;;;;;;;19.67;100.00;95599.47;5115598;28;20443;-62
2023/09/23 05:03:11;;;;;;;0.63;0.60;;;;;;;19.14;100.00;95538.00;5113966;27;20474;-61
2023/09/23 05:05:40;;;;;;;0.60;0.50;;;;;;;19.69;100.00;95626.81;5114616;28;20966;-61
2023/09/23 05:08:09;;;;;;;0.60;0.47;;;;;;;19.72;100.00;95630.75;5114736;28;20450;-61
2023/09/23 05:10:39;;;;;;;0.70;0.47;;;;;;;19.36;100.00;95588.06;5115512;28;20442;-62
2023/09/23 05:13:10;;;;;;;3.80;1.00;;;;;;;19.67;100.00;95642.50;5115190;28;20516;-62
2023/09/23 05:15:38;;;;;;;0.47;0.30;;;;;;;19.71;100.00;95632.66;5115169;28;20441;-61
2023/09/23 05:18:08;;;;;;;0.60;0.43;;;;;;;19.78;100.00;95616.06;5114976;28;20943;-62
2023/09/23 05:20:37;;;;;;;2.80;1.07;;;;;;;20.04;100.00;95632.91;5114489;28;20439;-61
2023/09/23 05:23:06;;;;;;;0.77;0.77;;;;;;;20.38;100.00;95650.88;5114386;28;20442;-62
2023/09/23 05:25:36;;;;;;;1.30;1.20;;;;;;;20.32;100.00;95647.56;5114153;28;20526;-60
2023/09/23 05:28:06;;;;;;;1.13;0.50;;;;;;;20.51;100.00;95648.00;5115149;28;20446;-61
2023/09/23 05:30:39;;;;;;;0.60;0.60;;;;;;;20.66;100.00;95652.03;5114563;28;20865;-61
2023/09/23 05:33:08;;;;;;;0.63;0.63;;;;;;;20.54;100.00;95649.25;5115023;28;20451;-61
2023/09/23 05:35:39;;;;;;;4.73;0.50;;;;;;;20.71;100.00;95654.53;5114476;28;20440;-60
2023/09/23 05:38:09;;;;;;;1.63;1.53;;;;;;;20.78;100.00;95644.03;5113382;28;20833;-60
2023/09/23 05:40:38;;;;;;;2.17;0.50;;;;;;;20.92;100.00;95645.38;5114132;28;20439;-60
2023/09/23 05:43:06;;;;;;;0.80;0.80;;;;;;;21.07;100.00;95646.75;5114606;28;20518;-61
2023/09/23 05:45:37;;;;;;;3.10;0.87;;;;;;;21.39;100.00;95645.25;5114452;28;20431;-61
2023/09/23 05:48:07;;;;;;;0.63;0.50;;;;;;;21.64;100.00;95646.16;5114259;28;20446;-62
2023/09/23 05:50:37;;;;;;;0.70;0.40;;;;;;;21.71;100.00;95649.09;5113444;27;20550;-62
2023/09/23 05:53:05;;;;;;;1.07;0.60;;;;;;;21.53;100.00;95568.34;5113838;27;20475;-61
2023/09/23 05:55:34;;;;;;;0.70;0.70;;;;;;;22.29;100.00;95656.19;5113998;28;20521;-62
2023/09/23 05:58:02;;;;;;;0.60;0.43;;;;;;;22.73;95.62;95652.63;5114088;28;20431;-60
2023/09/23 06:00:31;;;;;;;0.70;0.70;;;;;;;22.72;93.84;95619.41;5114141;28;20445;-61
2023/09/23 06:03:00;;;;;;;1.63;1.53;;;;;;;22.47;97.59;95661.03;5101100;28;20451;-59
2023/09/23 06:05:30;;;;;;;1.00;0.80;;;;;;;22.28;100.00;95658.09;5118763;28;20938;-58
2023/09/23 06:07:58;;;;;;;2.20;0.97;;;;;;;22.29;100.00;95637.28;5113971;28;20435;-62
2023/09/23 06:10:27;;;;;;;0.80;0.80;;;;;;;21.95;100.00;95677.00;5114059;28;20558;-61
2023/09/23 06:12:55;;;;;;;8.93;1.27;;;;;;;21.71;100.00;95611.31;5114351;28;20439;-60
2023/09/23 06:15:24;;;;;;;0.80;0.60;;;;;;;22.73;100.00;95663.44;5114159;28;20514;-60
2023/09/23 06:17:52;;;;;;;1.00;0.87;;;;;;;22.84;99.38;95661.88;5114032;28;20439;-60
2023/09/23 06:20:21;;;;;;;1.07;1.07;;;;;;;22.54;98.97;95655.09;5114264;28;20846;-60
2023/09/23 06:22:51;;;;;;;1.27;1.27;;;;;;;22.46;100.00;95659.47;5113917;28;20436;-59
2023/09/23 06:25:20;;;;;;;1.03;0.90;;;;;;;22.97;97.03;95668.06;5113658;28;20439;-59
2023/09/23 06:27:48;;;;;;;0.80;0.70;;;;;;;22.87;98.00;95666.59;5114104;28;20530;-58
2023/09/23 06:30:17;;;;;;;0.70;0.67;;;;;;;23.45;95.16;95664.53;5113877;28;20462;-58
2023/09/23 06:32:47;;;;;;;0.83;0.67;;;;;;;23.36;93.89;95653.84;5113819;28;20967;-58
2023/09/23 06:35:16;;;;;;;1.10;1.00;;;;;;;23.50;93.55;95665.09;5113275;28;20881;-58
2023/09/23 06:37:44;;;;;;;2.47;0.80;;;;;;;24.11;88.10;95665.66;5112806;28;20522;-58
2023/09/23 06:40:14;;;;;;;1.23;1.23;;;;;;;24.83;84.28;95661.72;5112999;28;20446;-58
2023/09/23 06:42:46;;;;;;;0.50;0.50;;;;;;;25.24;81.36;95663.84;5113607;28;20435;-58
2023/09/23 06:45:15;;;;;;;0.60;0.50;;;;;;;25.78;78.48;95657.63;5113547;28;20500;-59
2023/09/23 06:47:43;;;;;;;0.60;0.50;;;;;;;26.09;75.83;95657.47;5113312;28;20439;-58
2023/09/23 06:50:12;;;;;;;1.30;1.20;;;;;;;26.14;76.59;95656.41;5112517;28;20936;-58
2023/09/23 06:52:43;;;;;;;1.10;0.97;;;;;;;26.19;75.86;95654.19;5112481;27;20467;-57
2023/09/23 06:55:12;;;;;;;0.50;0.40;;;;;;;26.80;72.06;95656.03;5112691;28;20479;-59
2023/09/23 06:57:42;;;;;;;1.00;1.00;;;;;;;27.56;69.44;95631.13;5113268;28;20514;-59
2023/09/23 07:00:11;;;;;;;0.60;0.30;;;;;;;27.62;68.26;95632.41;5112899;28;20450;-50
2023/09/23 07:02:39;;;;;;;3.80;0.77;;;;;;;27.85;66.83;95651.34;5113026;28;20564;-50
2023/09/23 07:05:09;;;;;;;2.00;1.03;;;;;;;27.66;66.41;95646.84;5112337;28;20514;-50
2023/09/23 07:07:38;;;;;;;0.50;0.40;;;;;;;27.87;65.81;95642.78;5112621;28;20439;-51
2023/09/23 07:10:08;;;;;;;1.03;0.70;;;;;;;28.02;63.60;95650.78;5112703;28;20449;-51
2023/09/23 07:12:37;;;;;;;2.00;1.80;;;;;;;28.10;64.14;95638.03;5112642;28;20766;-51
2023/09/23 07:15:08;;;;;;;1.07;0.67;;;;;;;28.38;63.63;95638.31;5113337;28;20857;-51
2023/09/23 07:17:36;;;;;;;0.40;0.37;;;;;;;28.79;61.05;95644.56;5112500;28;20447;-51
2023/09/23 07:20:06;;;;;;;0.70;0.70;;;;;;;28.73;61.85;95648.78;5112871;28;20440;-51
2023/09/23 07:22:35;;;;;;;0.40;0.30;;;;;;;29.48;59.59;95648.16;5112247;28;20439;-50
2023/09/23 07:25:04;;;;;;;1.50;0.47;;;;;;;29.81;58.49;95636.25;5112496;28;20443;-51
2023/09/23 07:27:33;;;;;;;0.40;0.30;;;;;;;30.41;57.54;95641.94;5112176;28;20935;-50
2023/09/23 07:30:01;;;;;;;0.50;0.50;;;;;;;30.16;56.52;95639.88;5112548;28;20510;-50
2023/09/23 07:32:31;;;;;;;0.40;0.40;;;;;;;30.63;55.45;95646.25;5112013;28;20486;-50
2023/09/23 07:35:00;;;;;;;0.40;0.30;;;;;;;30.63;54.45;95640.78;5112199;28;20477;-50
2023/09/23 07:37:28;;;;;;;1.00;0.70;;;;;;;30.41;54.74;95614.59;5112121;28;20440;-49
2023/09/23 07:39:57;;;;;;;0.60;0.60;;;;;;;30.87;53.69;95644.69;5112355;28;20450;-49
2023/09/23 07:42:25;;;;;;;0.90;0.77;;;;;;;30.63;52.88;95605.22;5112165;28;20775;-48
2023/09/23 07:44:54;;;;;;;3.50;0.90;;;;;;;30.25;52.69;95644.22;5112259;28;20480;-50
2023/09/23 07:47:22;;;;;;;1.37;0.73;;;;;;;30.75;54.80;95637.66;5099401;28;20955;-49
2023/09/23 07:49:52;;;;;;;0.90;0.60;;;;;;;30.91;52.87;95623.63;5112040;28;20503;-49
2023/09/23 07:52:21;;;;;;;0.60;0.60;;;;;;;30.07;53.16;95631.28;5111797;28;20462;-49
2023/09/23 07:54:49;;;;;;;0.60;0.60;;;;;;;30.73;52.39;95629.06;5112254;28;20467;-49
2023/09/23 07:57:17;;;;;;;0.97;0.60;;;;;;;31.36;51.83;95623.56;5111814;28;20443;-49
2023/09/23 07:59:46;;;;;;;0.40;0.30;;;;;;;31.53;51.96;95618.44;5111081;28;20443;-49
2023/09/23 08:02:14;;;;;;;0.87;0.50;;;;;;;31.48;51.45;95616.09;5111770;28;20488;-49
2023/09/23 08:04:43;;;;;;;0.60;0.60;;;;;;;30.99;50.94;95611.50;5098274;28;20923;-49
2023/09/23 08:07:13;;;;;;;0.90;0.30;;;;;;;31.71;50.40;95613.66;5112244;28;20474;-49
2023/09/23 08:09:41;;;;;;;0.40;0.40;;;;;;;31.40;51.52;95610.63;5111938;28;20508;-49
2023/09/23 08:12:10;;;;;;;0.60;0.50;;;;;;;31.68;50.06;95589.78;5111885;28;20462;-49
2023/09/23 08:14:38;;;;;;;0.90;0.90;;;;;;;31.88;49.49;95571.69;5111850;28;20431;-49
2023/09/23 08:17:07;;;;;;;0.67;0.50;;;;;;;31.83;50.11;95610.47;5111446;28;20519;-49
2023/09/23 08:19:35;;;;;;;1.77;1.63;;;;;;;31.29;49.60;95606.34;5111712;28;20935;-49
2023/09/23 08:22:04;;;;;;;0.73;0.73;;;;;;;31.46;49.70;95605.53;5111596;28;21051;-50
2023/09/23 08:24:34;;;;;;;1.13;1.13;;;;;;;32.25;50.62;95601.28;5112173;28;20489;-50
2023/09/23 08:27:05;;;;;;;3.53;0.70;;;;;;;31.95;50.10;95593.59;5111387;28;20470;-50
2023/09/23 08:29:34;;;;;;;0.60;0.60;;;;;;;32.33;48.05;95592.63;5111648;28;20453;-49
2023/09/23 08:32:03;;;;;;;0.97;0.97;;;;;;;32.01;49.93;95592.81;5111295;28;20439;-48
2023/09/23 08:34:31;;;;;;;0.73;0.73;;;;;;;32.36;46.03;95580.06;5112300;28;20443;-48
2023/09/23 08:37:00;;;;;;;0.47;0.37;;;;;;;32.90;44.67;95551.78;5111510;28;21965;-48
2023/09/23 08:39:29;;;;;;;0.50;0.50;;;;;;;33.18;44.39;95569.97;5111786;28;20438;-48
2023/09/23 08:42:04;;;;;;;1.03;1.03;;;;;;;33.91;44.73;95584.06;5111329;28;20841;-48
2023/09/23 08:44:34;;;;;;;0.67;0.43;;;;;;;34.22;44.36;95585.63;5111202;28;20438;-48
2023/09/23 08:47:02;;;;;;;0.43;0.40;;;;;;;34.15;43.86;95571.97;5111399;28;20435;-48
2023/09/23 08:49:32;;;;;;;1.10;0.50;;;;;;;33.99;44.24;95576.50;5111299;28;20493;-49
2023/09/23 08:52:03;;;;;;;0.37;0.33;;;;;;;33.98;45.21;95572.19;5110994;28;20527;-49
2023/09/23 08:54:31;;;;;;;0.70;0.70;;;;;;;34.11;44.05;95567.69;5111402;28;20439;-49
2023/09/23 08:57:01;;;;;;;2.30;0.40;;;;;;;34.79;41.62;95562.72;5111547;28;20481;-49
2023/09/23 08:59:30;;;;;;;0.50;0.50;;;;;;;35.40;41.33;95558.50;5111297;28;20446;-49
2023/09/23 09:01:59;;;;;;;0.50;0.47;;;;;;;35.51;41.30;95555.53;5111568;28;20840;-49
2023/09/23 09:04:27;;;;;;;2.50;0.43;;;;;;;35.85;40.23;95544.97;5111220;28;20445;-57
2023/09/23 09:06:57;;;;;;;0.43;0.40;;;;;;;36.56;38.72;95544.19;5111653;28;20435;-57
2023/09/23 09:09:26;;;;;;;0.50;0.43;;;;;;;36.70;38.26;95545.84;5111450;28;20250;-58
2023/09/23 09:11:55;;;;;;;0.40;0.30;;;;;;;36.72;38.97;95537.88;5111799;28;20200;-56
2023/09/23 09:14:25;;;;;;;0.60;0.40;;;;;;;37.56;37.44;95543.19;5114793;28;20230;-58
2023/09/23 09:16:54;;;;;;;0.90;0.57;;;;;;;36.92;38.63;95536.56;5114816;28;20209;-58
2023/09/23 09:19:22;;;;;;;0.40;0.40;;;;;;;37.08;38.77;95540.53;5115597;28;20296;-58
2023/09/23 09:21:51;;;;;;;0.40;0.33;;;;;;;37.27;37.59;95534.88;5114918;28;20669;-58
2023/09/23 09:24:22;;;;;;;0.40;0.40;;;;;;;37.17;38.52;95535.94;5114732;28;20193;-58
2023/09/23 09:26:51;;;;;;;0.50;0.30;;;;;;;36.62;36.92;95531.44;5115029;28;20197;-57
2023/09/23 09:29:19;;;;;;;0.50;0.40;;;;;;;36.67;36.26;95532.88;5114825;28;20197;-57
2023/09/23 09:31:51;;;;;;;5.82;0.70;;;;;;;37.08;38.19;95535.81;5114966;28;20724;-57
2023/09/23 09:34:25;;;;;;;0.63;0.63;;;;;;;37.14;36.94;95522.97;5114730;28;20229;-57
2023/09/23 09:36:57;;;;;;;0.43;0.40;;;;;;;37.19;36.29;95516.91;5110473;28;20307;-58
2023/09/23 09:39:31;;;;;;;0.50;0.40;;;;;;;36.69;36.77;95476.00;5092961;28;20435;-58
2023/09/23 09:42:03;;;;;;;2.33;0.70;;;;;;;37.47;36.30;95505.09;5114693;28;20591;-58
2023/09/23 09:44:33;;;;;;;2.15;0.90;;;;;;;37.66;37.66;95514.44;5114812;28;20603;-53
2023/09/23 09:47:05;;;;;;;4.97;0.50;;;;;;;37.42;38.77;95505.63;5114440;28;20247;-53
2023/09/23 09:49:37;;;;;;;0.30;0.30;;;;;;;37.63;35.70;95511.78;5114331;28;20193;-54
2023/09/23 09:52:06;;;;;;;0.85;0.85;;;;;;;38.29;35.03;95511.75;5114088;28;20256;-54
2023/09/23 09:54:36;;;;;;;1.50;0.88;;;;;;;38.07;35.95;95503.34;5114010;28;20189;-54
2023/09/23 09:57:07;;;;;;;2.50;0.40;;;;;;;37.97;35.34;95489.84;5114314;28;20588;-54
2023/09/23 09:59:37;;;;;;;0.73;0.63;;;;;;;37.60;34.55;95493.31;5114001;28;20200;-55
2023/09/23 10:02:08;;;;;;;0.40;0.40;;;;;;;37.48;34.67;95490.06;5114180;28;20665;-55
2023/09/23 10:04:36;;;;;;;2.10;0.85;;;;;;;37.36;37.10;95488.03;5113988;28;20237;-56
2023/09/23 10:07:08;;;;;;;0.40;0.30;;;;;;;37.43;35.38;95485.09;5113815;28;20638;-55
2023/09/23 10:09:38;;;;;;;0.35;0.32;;;;;;;37.35;34.56;95469.09;5114223;28;20735;-55
2023/09/23 10:12:08;;;;;;;0.35;0.30;;;;;;;38.39;33.80;95460.03;5114135;28;20189;-54
2023/09/23 10:14:38;;;;;;;4.88;0.50;;;;;;;38.26;33.23;95479.41;5113619;28;20197;-55
2023/09/23 10:17:09;;;;;;;3.03;0.73;;;;;;;38.43;33.07;95471.78;5113854;28;20252;-54
2023/09/23 10:19:41;;;;;;;0.52;0.52;;;;;;;38.01;34.23;95463.59;5113624;28;20653;-55
2023/09/23 10:22:17;;;;;;;0.40;0.40;;;;;;;37.98;34.25;95450.63;5113472;28;20203;-53
2023/09/23 10:24:46;;;;;;;2.08;0.30;;;;;;;38.94;32.96;95461.34;5113559;27;20192;-54
2023/09/23 10:27:21;;;;;;;1.65;0.30;;;;;;;39.61;31.22;95458.94;5113978;28;20197;-54
2023/09/23 10:29:49;;;;;;;2.80;0.57;;;;;;;39.40;33.04;95448.59;5113614;28;20200;-55
2023/09/23 10:32:19;;;;;;;1.23;0.50;;;;;;;38.57;33.11;95422.22;5113196;28;20228;-54
2023/09/23 10:34:49;;;;;;;0.40;0.40;;;;;;;38.58;34.37;95443.13;5111456;28;20608;-54
2023/09/23 10:37:32;;;;;;;0.40;0.30;;;;;;;39.64;32.68;95442.16;5110593;28;20252;-54
2023/09/23 10:40:08;;;;;;;0.50;0.38;;;;;;;39.76;33.57;95427.41;5113875;28;20568;-54
2023/09/23 10:42:37;;;;;;;0.30;0.30;;;;;;;39.36;33.40;95423.78;5113383;28;20237;-55
2023/09/23 10:45:09;;;;;;;0.40;0.40;;;;;;;39.84;33.24;95422.34;5113322;28;20671;-54
2023/09/23 10:47:40;;;;;;;0.30;0.30;;;;;;;39.82;32.24;95402.59;5113094;28;20204;-55
2023/09/23 10:50:09;;;;;;;0.38;0.35;;;;;;;39.76;34.03;95407.97;5113182;28;20284;-54
2023/09/23 10:55:24;;;;;;;0.60;0.60;;;;;;;39.39;35.24;95406.25;5112984;28;20207;-54
2023/09/23 10:57:54;;;;;;;0.40;0.30;;;;;;;39.03;34.94;95405.97;5112834;28;20213;-56
2023/09/23 11:00:24;;;;;;;0.65;0.65;;;;;;;39.43;35.65;95395.78;5113052;28;20197;-56
2023/09/23 11:02:54;;;;;;;0.30;0.22;;;;;;;38.86;35.57;95390.75;5112595;28;20257;-54
2023/09/23 11:05:24;;;;;;;2.65;0.65;;;;;;;38.73;35.87;95385.25;5112749;28;20302;-56
2023/09/23 11:07:55;;;;;;;11.65;0.60;;;;;;;37.75;34.93;95356.09;5112294;28;20250;-55
2023/09/23 11:10:24;;;;;;;2.17;0.85;;;;;;;37.52;36.08;95385.63;5112688;28;20249;-55
2023/09/23 11:12:55;;;;;;;0.40;0.40;;;;;;;39.12;33.80;95378.28;5112121;28;20185;-55
2023/09/23 11:15:28;;;;;;;0.45;0.30;;;;;;;39.13;33.94;95375.09;5112527;28;20200;-55
2023/09/23 11:17:58;;;;;;;0.30;0.30;;;;;;;39.64;33.57;95358.13;5112552;28;20697;-55
2023/09/23 11:20:30;;;;;;;0.30;0.30;;;;;;;39.63;33.27;95307.41;5111953;28;20250;-62
2023/09/23 11:23:00;;;;;;;0.50;0.47;;;;;;;39.42;32.59;95358.16;5086347;28;20275;-61
2023/09/23 11:25:29;;;;;;;3.25;0.30;;;;;;;40.02;34.52;95352.22;5111806;28;20555;-61
2023/09/23 11:28:00;;;;;;;5.75;0.52;;;;;;;39.66;31.02;95356.44;5112394;28;20196;-61
2023/09/23 11:30:29;;;;;;;1.30;0.85;;;;;;;39.48;30.17;95350.78;5111541;28;20280;-63
2023/09/23 11:33:00;;;;;;;6.35;0.68;;;;;;;39.94;31.84;95346.97;5112510;28;20203;-63
2023/09/23 11:35:29;;;;;;;0.40;0.35;;;;;;;40.65;31.38;95338.44;5111261;28;20193;-61
2023/09/23 11:37:57;;;;;;;0.30;0.25;;;;;;;41.38;29.28;95343.91;5112583;28;20213;-61
2023/09/23 11:40:26;;;;;;;5.35;0.50;;;;;;;41.35;29.34;95328.16;5111946;28;20268;-60
2023/09/23 11:42:55;;;;;;;1.10;1.00;;;;;;;41.35;29.41;95334.50;5112378;28;20212;-61